createdAt,value
2019-04-20T00:01:58.258Z,3.50
2019-04-20T00:05:01.086Z,3.40
2019-04-20T00:08:09.106Z,3.40
2019-04-20T00:11:17.697Z,3.50
2019-04-20T00:14:23.900Z,3.50
2019-04-20T00:17:22.041Z,3.50
2019-04-20T00:20:30.652Z,3.40
2019-04-20T00:23:38.375Z,3.30
2019-04-20T00:29:58.677Z,3.30
2019-04-20T00:32:58.516Z,3.30
2019-04-20T00:35:55.414Z,3.30
2019-04-20T00:39:02.730Z,3.20
2019-04-20T00:42:09.675Z,3.10
2019-04-20T00:45:18.227Z,3.10
2019-04-20T00:48:31.494Z,3.00
2019-04-20T00:51:35.127Z,2.90
2019-04-20T00:54:28.438Z,2.80
2019-04-20T00:57:41.384Z,2.80
2019-04-20T01:01:04.265Z,2.80
2019-04-20T01:03:58.502Z,2.80
2019-04-20T01:07:06.075Z,2.80
2019-04-20T01:10:00.535Z,2.90
2019-04-20T01:13:11.044Z,2.80
2019-04-20T01:16:21.852Z,2.80
2019-04-20T01:19:15.796Z,2.90
2019-04-20T01:22:24.116Z,2.80
2019-04-20T01:25:32.326Z,2.70
2019-04-20T01:28:47.791Z,2.70
2019-04-20T01:31:53.102Z,2.60
2019-04-20T01:34:56.425Z,2.50
2019-04-20T01:38:07.465Z,2.80
2019-04-20T01:40:54.945Z,2.90
2019-04-20T01:43:58.895Z,2.80
2019-04-20T01:47:06.267Z,3.10
2019-04-20T01:50:14.214Z,3.10
2019-04-20T01:53:32.534Z,2.90
2019-04-20T01:56:37.392Z,3.00
2019-04-20T01:59:44.904Z,2.80
2019-04-20T02:02:46.083Z,2.60
2019-04-20T02:05:53.028Z,2.50
2019-04-20T02:08:50.879Z,2.40
2019-04-20T02:11:55.694Z,2.30
2019-04-20T02:15:04.207Z,2.30
2019-04-20T02:18:20.573Z,2.30
2019-04-20T02:21:28.250Z,2.30
2019-04-20T02:24:17.855Z,2.40
2019-04-20T02:27:32.091Z,2.50
2019-04-20T02:31:04.684Z,2.50
2019-04-20T02:34:17.948Z,2.50
2019-04-20T02:40:27.085Z,2.70
2019-04-20T02:43:40.166Z,2.70
2019-04-20T02:46:41.391Z,2.60
2019-04-20T02:49:41.989Z,2.60
2019-04-20T02:52:56.862Z,2.60
2019-04-20T02:55:57.700Z,2.50
2019-04-20T02:59:12.622Z,2.50
2019-04-20T03:01:50.221Z,2.30
2019-04-20T03:04:47.101Z,2.10
2019-04-20T03:08:02.260Z,2.10
2019-04-20T03:11:15.856Z,2.10
2019-04-20T03:14:10.154Z,2.10
2019-04-20T03:17:21.167Z,2.10
2019-04-20T03:20:29.508Z,2.10
2019-04-20T03:23:44.430Z,2.10
2019-04-20T03:26:36.560Z,2.20
2019-04-20T03:29:58.501Z,2.30
2019-04-20T03:33:12.665Z,2.30
2019-04-20T03:36:16.250Z,2.30
2019-04-20T03:39:04.197Z,2.30
2019-04-20T03:41:55.135Z,2.30
2019-04-20T03:45:05.323Z,2.50
2019-04-20T03:48:14.358Z,2.40
2019-04-20T03:51:33.479Z,2.40
2019-04-20T03:54:36.918Z,2.50
2019-04-20T03:57:52.933Z,2.40
2019-04-20T04:00:54.527Z,2.40
2019-04-20T04:04:09.436Z,2.40
2019-04-20T04:06:58.076Z,2.40
2019-04-20T04:10:15.977Z,2.60
2019-04-20T04:13:14.757Z,2.70
2019-04-20T04:16:21.888Z,2.70
2019-04-20T04:19:30.249Z,2.70
2019-04-20T04:22:43.952Z,2.70
2019-04-20T04:25:55.684Z,2.70
2019-04-20T04:29:02.680Z,2.70
2019-04-20T04:32:17.343Z,2.60
2019-04-20T04:35:05.621Z,2.50
2019-04-20T04:38:24.093Z,2.50
2019-04-20T04:41:24.017Z,2.50
2019-04-20T04:44:19.218Z,2.60
2019-04-20T04:47:15.005Z,2.70
2019-04-20T04:50:24.525Z,2.90
2019-04-20T04:53:40.848Z,3.20
2019-04-20T04:56:31.942Z,3.40
2019-04-20T04:59:36.227Z,3.60
2019-04-20T05:02:45.291Z,3.80
2019-04-20T05:06:06.687Z,4.00
2019-04-20T05:09:00.201Z,4.30
2019-04-20T05:12:09.837Z,5.80
2019-04-20T05:15:14.393Z,7.50
2019-04-20T05:18:43.495Z,9.30
2019-04-20T05:21:39.826Z,11.40
2019-04-20T05:24:53.635Z,13.60
2019-04-20T05:27:56.294Z,14.10
2019-04-20T05:30:59.063Z,15.30
2019-04-20T05:34:20.371Z,17.30
2019-04-20T05:37:34.271Z,18.70
2019-04-20T05:40:32.573Z,19.20
2019-04-20T05:43:37.189Z,19.00
2019-04-20T05:46:42.473Z,19.00
2019-04-20T05:49:46.870Z,20.40
2019-04-20T05:52:59.838Z,20.40
2019-04-20T05:55:54.674Z,20.20
2019-04-20T05:59:09.778Z,20.30
2019-04-20T06:02:09.767Z,20.80
2019-04-20T06:05:19.564Z,20.50
2019-04-20T06:08:34.158Z,20.40
2019-04-20T06:11:37.035Z,21.20
2019-04-20T06:14:49.208Z,21.20
2019-04-20T06:17:59.718Z,21.10
2019-04-20T06:21:16.255Z,22.00
2019-04-20T06:24:20.807Z,22.50
2019-04-20T06:27:29.327Z,23.00
2019-04-20T06:30:25.186Z,23.70
2019-04-20T06:34:08.943Z,23.20
2019-04-20T06:36:57.181Z,22.50
2019-04-20T06:40:25.361Z,23.10
2019-04-20T06:43:16.239Z,23.10
2019-04-20T06:46:16.911Z,23.00
2019-04-20T06:49:32.058Z,22.70
2019-04-20T06:52:34.387Z,22.40
2019-04-20T06:55:38.602Z,22.20
2019-04-20T06:59:01.670Z,22.50
2019-04-20T07:01:58.322Z,22.80
2019-04-20T07:08:02.008Z,23.00
2019-04-20T07:11:08.245Z,23.00
2019-04-20T07:13:56.958Z,23.00
2019-04-20T07:17:34.922Z,23.20
2019-04-20T07:20:56.765Z,23.40
2019-04-20T07:23:54.426Z,23.20
2019-04-20T07:26:55.550Z,23.40
2019-04-20T07:30:03.966Z,23.70
2019-04-20T07:33:09.100Z,23.70
2019-04-20T07:36:19.903Z,24.00
2019-04-20T07:39:24.241Z,24.30
2019-04-20T07:42:28.930Z,24.10
2019-04-20T07:45:35.112Z,24.20
2019-04-20T07:48:39.303Z,24.00
2019-04-20T07:51:28.259Z,24.30
2019-04-20T07:55:03.607Z,24.40
2019-04-20T07:57:47.286Z,24.40
2019-04-20T08:01:10.279Z,24.00
2019-04-20T08:04:09.319Z,24.10
2019-04-20T08:06:58.484Z,24.40
2019-04-20T08:10:04.015Z,24.80
2019-04-20T08:13:32.001Z,24.60
2019-04-20T08:16:41.140Z,23.80
2019-04-20T08:19:36.685Z,23.80
2019-04-20T08:22:42.094Z,22.60
2019-04-20T08:25:38.808Z,22.40
2019-04-20T08:28:42.580Z,21.50
2019-04-20T08:31:55.812Z,21.60
2019-04-20T08:35:04.925Z,21.70
2019-04-20T08:38:37.363Z,22.10
2019-04-20T08:41:12.841Z,22.10
2019-04-20T08:44:41.411Z,22.00
2019-04-20T08:47:41.727Z,21.80
2019-04-20T08:50:34.060Z,21.70
2019-04-20T08:53:42.088Z,21.40
2019-04-20T08:56:34.876Z,21.50
2019-04-20T08:59:32.372Z,21.10
2019-04-20T09:02:36.912Z,20.40
2019-04-20T09:05:52.265Z,20.60
2019-04-20T09:09:03.366Z,20.70
2019-04-20T09:12:11.570Z,20.90
2019-04-20T09:14:59.421Z,20.90
2019-04-20T09:18:29.026Z,20.80
2019-04-20T09:21:37.980Z,20.90
2019-04-20T09:24:51.467Z,21.10
2019-04-20T09:27:45.730Z,20.90
2019-04-20T09:30:54.383Z,20.70
2019-04-20T09:34:14.432Z,20.90
2019-04-20T09:37:25.887Z,20.90
2019-04-20T09:40:32.158Z,20.80
2019-04-20T09:43:30.388Z,20.80
2019-04-20T09:46:39.968Z,20.90
2019-04-20T09:49:51.901Z,20.70
2019-04-20T09:53:02.442Z,20.70
2019-04-20T09:56:10.914Z,21.10
2019-04-20T09:59:16.841Z,21.20
2019-04-20T10:02:08.852Z,21.00
2019-04-20T10:05:07.672Z,21.00
2019-04-20T10:08:11.816Z,21.10
2019-04-20T10:11:17.041Z,21.20
2019-04-20T10:14:22.518Z,21.40
2019-04-20T10:17:29.649Z,21.20
2019-04-20T10:20:36.146Z,21.30
2019-04-20T10:23:38.640Z,20.90
2019-04-20T10:26:42.871Z,21.20
2019-04-20T10:29:46.690Z,21.40
2019-04-20T10:32:53.841Z,21.20
2019-04-20T10:35:57.338Z,21.20
2019-04-20T10:39:02.383Z,21.30
2019-04-20T10:42:07.994Z,21.10
2019-04-20T10:45:12.839Z,21.30
2019-04-20T10:48:17.342Z,21.50
2019-04-20T10:51:21.813Z,21.50
2019-04-20T10:54:26.689Z,21.40
2019-04-20T10:57:31.285Z,21.70
2019-04-20T11:00:43.977Z,21.80
2019-04-20T11:03:48.051Z,21.60
2019-04-20T11:06:52.403Z,21.40
2019-04-20T11:10:10.673Z,21.30
2019-04-20T11:13:03.209Z,21.30
2019-04-20T11:16:08.394Z,21.40
2019-04-20T11:19:13.535Z,21.40
2019-04-20T11:22:17.481Z,21.40
2019-04-20T11:25:22.105Z,21.50
2019-04-20T11:28:26.260Z,21.70
2019-04-20T11:31:37.343Z,21.70
2019-04-20T11:34:38.957Z,21.90
2019-04-20T11:37:41.169Z,21.80
2019-04-20T11:40:45.074Z,21.90
2019-04-20T11:43:49.452Z,21.90
2019-04-20T11:46:54.525Z,21.90
2019-04-20T11:49:59.570Z,21.90
2019-04-20T11:53:03.590Z,21.80
2019-04-20T11:56:14.502Z,21.70
2019-04-20T11:59:14.557Z,21.60
2019-04-20T12:02:34.381Z,21.50
2019-04-20T12:05:38.098Z,21.40
2019-04-20T12:08:40.459Z,21.90
2019-04-20T12:11:56.293Z,21.90
2019-04-20T12:14:48.920Z,22.10
2019-04-20T12:17:53.654Z,22.20
2019-04-20T12:20:58.803Z,22.20
2019-04-20T12:24:02.842Z,22.20
2019-04-20T12:27:06.943Z,22.30
2019-04-20T12:30:12.101Z,22.50
2019-04-20T12:33:16.000Z,22.50
2019-04-20T12:36:20.539Z,22.50
2019-04-20T12:39:24.906Z,22.20
2019-04-20T12:42:28.961Z,22.40
2019-04-20T12:45:33.550Z,22.40
2019-04-20T12:48:37.785Z,22.40
2019-04-20T12:51:48.658Z,22.20
2019-04-20T12:54:47.980Z,22.20
2019-04-20T12:57:52.478Z,22.30
2019-04-20T13:00:56.663Z,22.30
2019-04-20T13:04:02.888Z,22.30
2019-04-20T13:07:06.042Z,22.20
2019-04-20T13:10:11.544Z,22.10
2019-04-20T13:13:32.436Z,22.10
2019-04-20T13:16:38.677Z,21.90
2019-04-20T13:19:42.581Z,21.90
2019-04-20T13:22:46.651Z,21.90
2019-04-20T13:25:50.869Z,22.20
2019-04-20T13:28:55.101Z,22.20
2019-04-20T13:32:00.067Z,22.20
2019-04-20T13:35:05.191Z,22.20
2019-04-20T13:38:09.997Z,22.20
2019-04-20T13:41:13.890Z,22.10
2019-04-20T13:44:18.020Z,21.80
2019-04-20T13:47:23.103Z,21.80
2019-04-20T13:50:29.447Z,21.80
2019-04-20T13:53:32.951Z,21.90
2019-04-20T13:56:37.650Z,21.90
2019-04-20T13:59:44.072Z,21.80
2019-04-20T14:02:50.775Z,21.70
2019-04-20T14:05:56.141Z,21.70
2019-04-20T14:09:01.306Z,21.60
2019-04-20T14:12:20.116Z,21.60
2019-04-20T14:15:11.318Z,21.60
2019-04-20T14:18:15.281Z,21.50
2019-04-20T14:21:20.324Z,21.50
2019-04-20T14:24:24.812Z,21.50
2019-04-20T14:27:28.974Z,21.50
2019-04-20T14:30:33.108Z,21.60
2019-04-20T14:33:37.078Z,21.70
2019-04-20T14:36:41.262Z,21.80
2019-04-20T14:39:46.160Z,21.70
2019-04-20T14:42:53.144Z,21.60
2019-04-20T14:45:56.664Z,21.60
2019-04-20T14:49:00.799Z,21.50
2019-04-20T14:52:06.203Z,21.50
2019-04-20T14:55:13.454Z,21.50
2019-04-20T14:58:37.547Z,21.40
2019-04-20T15:01:44.823Z,21.50
2019-04-20T15:04:50.283Z,21.40
2019-04-20T15:07:54.511Z,21.30
2019-04-20T15:10:58.845Z,21.30
2019-04-20T15:14:02.744Z,21.30
2019-04-20T15:17:08.799Z,21.30
2019-04-20T15:20:21.348Z,21.20
2019-04-20T15:23:27.780Z,21.00
2019-04-20T15:26:31.905Z,21.00
2019-04-20T15:29:36.091Z,21.00
2019-04-20T15:32:40.925Z,20.90
2019-04-20T15:35:46.055Z,20.80
2019-04-20T15:38:51.277Z,20.60
2019-04-20T15:41:55.491Z,20.50
2019-04-20T15:44:59.333Z,20.30
2019-04-20T15:48:03.799Z,20.30
2019-04-20T15:51:08.025Z,20.20
2019-04-20T15:54:13.496Z,20.30
2019-04-20T15:57:23.000Z,20.20
2019-04-20T16:00:24.479Z,20.10
2019-04-20T16:03:30.033Z,20.00
2019-04-20T16:06:34.963Z,19.80
2019-04-20T16:09:39.922Z,19.70
2019-04-20T16:12:44.886Z,19.70
2019-04-20T16:15:49.736Z,19.70
2019-04-20T16:18:55.070Z,19.70
2019-04-20T16:21:59.540Z,19.70
2019-04-20T16:25:05.560Z,19.60
2019-04-20T16:28:09.865Z,19.50
2019-04-20T16:31:15.404Z,19.50
2019-04-20T16:34:19.403Z,19.40
2019-04-20T16:37:24.467Z,19.30
2019-04-20T16:40:29.448Z,19.20
2019-04-20T16:43:38.983Z,19.10
2019-04-20T16:46:40.340Z,19.00
2019-04-20T16:49:44.344Z,18.80
2019-04-20T16:52:48.835Z,18.60
2019-04-20T16:55:52.981Z,18.30
2019-04-20T16:59:01.491Z,18.20
2019-04-20T17:02:02.550Z,18.00
2019-04-20T17:05:07.257Z,17.70
2019-04-20T17:08:11.323Z,17.60
2019-04-20T17:11:16.042Z,17.50
2019-04-20T17:14:20.900Z,17.30
2019-04-20T17:17:25.761Z,17.20
2019-04-20T17:20:30.658Z,17.00
2019-04-20T17:23:35.263Z,16.90
2019-04-20T17:26:52.997Z,16.70
2019-04-20T17:30:03.071Z,16.70
2019-04-20T17:33:08.503Z,16.70
2019-04-20T17:36:19.029Z,16.50
2019-04-20T17:39:27.731Z,16.40
2019-04-20T17:42:38.507Z,16.30
2019-04-20T17:45:41.989Z,16.10
2019-04-20T17:48:45.187Z,16.00
2019-04-20T17:52:06.230Z,15.90
2019-04-20T17:54:53.449Z,15.80
2019-04-20T17:57:57.567Z,15.40
2019-04-20T18:01:20.465Z,15.20
2019-04-20T18:07:41.222Z,14.60
2019-04-20T18:10:41.863Z,14.30
2019-04-20T18:13:34.112Z,13.90
2019-04-20T18:17:11.415Z,13.80
2019-04-20T18:20:05.190Z,13.70
2019-04-20T18:23:10.771Z,13.60
2019-04-20T18:26:31.995Z,13.30
2019-04-20T18:29:42.101Z,13.00
2019-04-20T18:32:37.628Z,12.80
2019-04-20T18:35:45.985Z,12.50
2019-04-20T18:38:55.321Z,12.20
2019-04-20T18:41:57.480Z,12.10
2019-04-20T18:45:16.015Z,12.00
2019-04-20T18:48:24.996Z,11.80
2019-04-20T18:51:09.967Z,11.70
2019-04-20T18:54:20.844Z,11.80
2019-04-20T18:57:24.882Z,11.70
2019-04-20T19:00:31.584Z,11.60
2019-04-20T19:03:35.678Z,11.60
2019-04-20T19:06:36.201Z,11.50
2019-04-20T19:09:41.072Z,11.30
2019-04-20T19:12:55.269Z,11.20
2019-04-20T19:16:06.810Z,10.90
2019-04-20T19:19:20.050Z,10.60
2019-04-20T19:22:12.165Z,10.40
2019-04-20T19:25:22.366Z,10.10
2019-04-20T19:28:26.105Z,10.10
2019-04-20T19:31:42.711Z,10.00
2019-04-20T19:34:45.404Z,9.80
2019-04-20T19:37:51.672Z,9.60
2019-04-20T19:40:54.577Z,9.40
2019-04-20T19:44:03.981Z,9.20
2019-04-20T19:47:17.006Z,9.10
2019-04-20T19:50:31.223Z,9.00
2019-04-20T19:53:26.107Z,8.80
2019-04-20T19:56:34.087Z,8.50
2019-04-20T19:59:26.096Z,8.30
2019-04-20T20:02:23.599Z,8.10
2019-04-20T20:05:33.716Z,7.90
2019-04-20T20:08:35.963Z,7.70
2019-04-20T20:11:42.365Z,7.60
2019-04-20T20:14:47.486Z,7.50
2019-04-20T20:18:10.965Z,7.40
2019-04-20T20:21:08.695Z,7.20
2019-04-20T20:24:01.910Z,7.20
2019-04-20T20:27:17.105Z,7.00
2019-04-20T20:30:20.430Z,6.80
2019-04-20T20:33:34.877Z,6.70
2019-04-20T20:36:28.932Z,6.60
2019-04-20T20:39:31.631Z,6.50
2019-04-20T20:42:51.374Z,6.60
2019-04-20T20:45:49.719Z,6.50
2019-04-20T20:52:12.320Z,6.40
2019-04-20T20:55:03.765Z,6.30
2019-04-20T20:58:10.318Z,6.20
2019-04-20T21:01:14.398Z,6.30
2019-04-20T21:04:12.835Z,6.30
2019-04-20T21:07:16.664Z,6.30
2019-04-20T21:10:26.917Z,6.10
2019-04-20T21:13:34.555Z,6.30
2019-04-20T21:16:36.410Z,6.10
2019-04-20T21:19:54.617Z,6.10
2019-04-20T21:23:01.305Z,6.10
2019-04-20T21:26:06.882Z,6.00
2019-04-20T21:29:10.929Z,5.90
2019-04-20T21:32:17.942Z,6.00
2019-04-20T21:35:21.733Z,5.80
2019-04-20T21:38:30.526Z,5.90
2019-04-20T21:41:31.545Z,5.80
2019-04-20T21:44:40.760Z,5.90
2019-04-20T21:47:42.759Z,6.00
2019-04-20T21:51:01.520Z,5.90
2019-04-20T21:53:56.388Z,6.00
2019-04-20T21:57:03.129Z,6.10
2019-04-20T22:00:10.355Z,6.00
2019-04-20T22:03:11.879Z,5.90
2019-04-20T22:06:16.416Z,5.80
2019-04-20T22:09:20.438Z,5.90
2019-04-20T22:12:28.487Z,6.00
2019-04-20T22:15:34.629Z,6.10
2019-04-20T22:18:48.429Z,6.10
2019-04-20T22:21:53.366Z,6.10
2019-04-20T22:25:01.392Z,6.00
2019-04-20T22:27:51.853Z,6.00
2019-04-20T22:30:55.854Z,5.90
2019-04-20T22:34:02.267Z,5.70
2019-04-20T22:37:09.789Z,5.60
2019-04-20T22:40:18.009Z,5.50
2019-04-20T22:43:24.070Z,5.50
2019-04-20T22:46:28.434Z,5.40
2019-04-20T22:49:45.503Z,5.40
2019-04-20T22:52:44.460Z,5.20
2019-04-20T22:56:02.784Z,5.20
2019-04-20T22:58:57.652Z,5.00
2019-04-20T23:01:55.204Z,4.90
2019-04-20T23:04:57.188Z,4.90
2019-04-20T23:08:02.419Z,5.00
2019-04-20T23:11:14.882Z,5.10
2019-04-20T23:14:11.884Z,4.80
2019-04-20T23:17:18.376Z,4.80
2019-04-20T23:20:26.953Z,4.80
2019-04-20T23:23:29.205Z,4.70
2019-04-20T23:26:36.807Z,4.60
2019-04-20T23:29:40.057Z,4.60
2019-04-20T23:32:44.127Z,4.50
2019-04-20T23:35:53.022Z,4.50
2019-04-20T23:38:57.750Z,4.60
2019-04-20T23:42:05.057Z,4.50
2019-04-20T23:45:13.639Z,4.60
2019-04-20T23:48:28.456Z,4.50
2019-04-20T23:51:49.904Z,4.60
2019-04-20T23:54:37.579Z,4.80
2019-04-20T23:57:41.933Z,4.70
